Time;durP1;ratioP1;P1;durP2;ratioP2;P2;SDS_P1;SDS_P2;PMS_P1;PMS_P2;Temp;Humidity;BMP_temperature;BMP_pressure;BME280_temperature;BME280_humidity;BME280_pressure;Samples;Min_cycle;Max_cycle;Signal;HPM_P1;HPM_P2
2022/11/07 00:00:07;;;;;;;1.03;0.50;;;9.30;99.90;;;;;;5124736;27;21100;-81
2022/11/07 00:02:34;;;;;;;0.40;0.30;;;9.30;99.90;;;;;;5130540;27;20606;-81
2022/11/07 00:05:01;;;;;;;0.60;0.60;;;9.10;99.90;;;;;;5129494;27;20952;-81
2022/11/07 00:07:28;;;;;;;0.40;0.40;;;9.30;99.90;;;;;;5130114;27;20668;-81
2022/11/07 00:09:55;;;;;;;0.40;0.20;;;9.30;99.90;;;;;;5129918;27;20623;-81
2022/11/07 00:12:22;;;;;;;0.53;0.40;;;9.30;99.90;;;;;;5129108;27;20626;-81
2022/11/07 00:14:50;;;;;;;0.60;0.60;;;9.40;99.90;;;;;;5130108;27;20626;-81
2022/11/07 00:17:18;;;;;;;0.40;0.40;;;9.40;99.90;;;;;;5130274;27;20626;-82
2022/11/07 00:19:45;;;;;;;1.27;0.73;;;9.40;99.90;;;;;;5130057;27;20619;-81
2022/11/07 00:22:11;;;;;;;0.40;0.40;;;9.40;99.90;;;;;;5130728;27;20650;-80
2022/11/07 00:24:38;;;;;;;9.80;0.50;;;9.40;99.90;;;;;;5130427;27;20618;-81
2022/11/07 00:27:05;;;;;;;0.50;0.50;;;9.30;99.90;;;;;;5126540;27;20660;-81
2022/11/07 00:29:32;;;;;;;2.77;0.63;;;9.30;99.90;;;;;;5110015;28;20615;-82
2022/11/07 00:32:00;;;;;;;0.67;0.60;;;9.30;99.90;;;;;;5109212;28;20652;-81
2022/11/07 00:34:27;;;;;;;0.50;0.43;;;9.30;99.90;;;;;;5109925;28;20754;-81
2022/11/07 00:36:54;;;;;;;1.00;1.00;;;9.40;99.90;;;;;;5109496;28;20633;-81
2022/11/07 00:39:20;;;;;;;1.20;0.43;;;9.20;99.90;;;;;;5109942;28;20622;-81
2022/11/07 00:41:48;;;;;;;0.40;0.40;;;9.20;99.90;;;;;;5109443;28;21173;-81
2022/11/07 00:44:15;;;;;;;0.77;0.77;;;10.10;99.90;;;;;;5109698;28;20702;-81
2022/11/07 00:46:42;;;;;;;2.67;0.67;;;9.40;99.90;;;;;;5108778;28;20662;-81
2022/11/07 00:49:10;;;;;;;0.60;0.60;;;9.30;99.90;;;;;;5109721;28;20621;-81
2022/11/07 00:51:37;;;;;;;1.13;0.60;;;9.30;99.90;;;;;;5109411;28;20685;-81
2022/11/07 00:54:05;;;;;;;1.53;0.80;;;10.00;99.90;;;;;;5109422;28;20627;-81
2022/11/07 00:56:32;;;;;;;0.60;0.50;;;9.40;99.90;;;;;;5109072;28;20755;-82
2022/11/07 00:58:59;;;;;;;0.40;0.20;;;9.30;99.90;;;;;;5114835;27;20595;-82
2022/11/07 01:01:28;;;;;;;1.13;0.80;;;9.20;99.90;;;;;;5129522;27;21054;-81
2022/11/07 01:06:43;;;;;;;0.70;0.50;;;9.30;99.90;;;;;;5129341;27;21255;-81
2022/11/07 01:09:12;;;;;;;0.40;0.40;;;9.30;99.90;;;;;;5130135;27;20640;-81
2022/11/07 01:11:39;;;;;;;0.53;0.53;;;9.30;99.90;;;;;;5129073;27;20683;-81
2022/11/07 01:14:07;;;;;;;0.73;0.73;;;9.30;99.90;;;;;;5129652;27;20623;-81
2022/11/07 01:16:37;;;;;;;0.60;0.50;;;9.20;99.90;;;;;;5129412;27;20718;-81
2022/11/07 01:19:04;;;;;;;0.60;0.40;;;;;;;;;;5129893;27;20699;-81
2022/11/07 01:21:31;;;;;;;0.73;0.60;;;9.30;99.90;;;;;;5129274;27;20710;-82
2022/11/07 01:24:02;;;;;;;0.90;0.77;;;9.40;99.90;;;;;;5129129;27;21286;-82
2022/11/07 01:26:29;;;;;;;0.93;0.50;;;9.30;99.90;;;;;;5129279;27;20757;-81
2022/11/07 01:28:55;;;;;;;1.07;0.80;;;9.30;99.90;;;;;;5110397;27;20646;-81
2022/11/07 01:31:22;;;;;;;1.73;0.90;;;9.30;99.90;;;;;;5108620;28;20618;-81
2022/11/07 01:33:49;;;;;;;3.33;0.60;;;9.50;99.90;;;;;;5108585;28;20661;-81
2022/11/07 01:36:17;;;;;;;1.60;0.53;;;9.40;99.90;;;;;;5108846;28;20608;-81
2022/11/07 01:38:47;;;;;;;0.70;0.67;;;9.30;99.90;;;;;;5108210;28;20688;-82
2022/11/07 01:41:22;;;;;;;0.50;0.50;;;9.30;99.90;;;;;;5108865;28;20620;-81
2022/11/07 01:43:52;;;;;;;0.50;0.30;;;9.30;99.90;;;;;;5108278;28;21208;-81
2022/11/07 01:46:19;;;;;;;0.40;0.30;;;9.30;99.90;;;;;;5108497;28;21126;-81
2022/11/07 01:48:51;;;;;;;0.30;0.30;;;9.30;99.90;;;;;;5108232;28;20714;-82
2022/11/07 01:51:19;;;;;;;1.37;1.37;;;9.10;99.90;;;;;;5108391;28;20715;-82
2022/11/07 01:53:47;;;;;;;0.70;0.60;;;9.10;99.90;;;;;;5108518;28;20719;-81
2022/11/07 01:56:18;;;;;;;1.10;0.60;;;9.20;99.90;;;;;;5108452;28;20643;-81
2022/11/07 01:58:47;;;;;;;0.40;0.40;;;9.40;99.90;;;;;;5112099;28;20627;-81
2022/11/07 02:01:15;;;;;;;0.50;0.40;;;9.10;99.90;;;;;;5128932;27;20623;-81
2022/11/07 02:03:42;;;;;;;0.60;0.60;;;9.10;99.90;;;;;;5127850;27;20619;-82
2022/11/07 02:06:13;;;;;;;0.90;0.90;;;9.10;99.90;;;;;;5129005;28;20745;-81
2022/11/07 02:08:44;;;;;;;0.90;0.87;;;9.10;99.90;;;;;;5127319;28;20603;-81
2022/11/07 02:11:12;;;;;;;0.60;0.40;;;9.10;99.90;;;;;;5128943;28;21191;-81
2022/11/07 02:13:41;;;;;;;1.37;1.27;;;9.10;99.90;;;;;;5128370;28;20615;-82
2022/11/07 02:16:08;;;;;;;2.67;1.33;;;9.10;99.90;;;;;;5128165;27;20619;-82
2022/11/07 02:18:40;;;;;;;1.00;1.00;;;9.30;99.90;;;;;;5128656;27;20602;-81
2022/11/07 02:21:16;;;;;;;1.10;0.70;;;9.40;99.90;;;;;;5129007;27;20615;-81
2022/11/07 02:23:49;;;;;;;0.93;0.83;;;9.40;99.90;;;;;;5128468;27;20610;-81
2022/11/07 02:26:18;;;;;;;0.67;0.67;;;9.40;99.90;;;;;;5128567;27;20652;-81
2022/11/07 02:28:47;;;;;;;0.93;0.60;;;9.30;99.90;;;;;;5110092;27;20981;-81
2022/11/07 02:31:14;;;;;;;4.87;1.30;;;9.80;99.90;;;;;;5108515;28;20604;-81
2022/11/07 02:33:41;;;;;;;0.40;0.30;;;9.50;99.90;;;;;;5107941;28;20620;-81
2022/11/07 02:36:14;;;;;;;0.50;0.50;;;9.50;99.90;;;;;;5111111;28;20592;-81
2022/11/07 02:38:42;;;;;;;0.80;0.40;;;9.50;99.90;;;;;;5112514;28;20603;-81
2022/11/07 02:41:12;;;;;;;0.80;0.80;;;10.30;99.90;;;;;;5111614;28;20615;-81
2022/11/07 02:43:46;;;;;;;0.70;0.70;;;9.60;99.90;;;;;;5111856;28;20604;-81
2022/11/07 02:46:14;;;;;;;0.40;0.40;;;9.60;99.90;;;;;;5111939;28;20611;-80
2022/11/07 02:48:44;;;;;;;1.43;0.67;;;9.60;99.90;;;;;;5112172;28;20661;-81
2022/11/07 02:51:11;;;;;;;1.47;0.80;;;9.60;99.90;;;;;;5111780;28;20610;-81
2022/11/07 02:53:38;;;;;;;1.83;0.73;;;9.70;99.90;;;;;;5111806;28;20614;-81
2022/11/07 02:56:06;;;;;;;1.90;1.00;;;9.70;99.90;;;;;;5111533;28;20664;-81
2022/11/07 02:58:33;;;;;;;0.40;0.40;;;9.70;99.90;;;;;;5113715;27;20619;-82
2022/11/07 03:01:05;;;;;;;0.50;0.50;;;9.70;99.90;;;;;;5132453;27;20621;-81
2022/11/07 03:03:33;;;;;;;1.03;0.93;;;9.80;99.90;;;;;;5132096;27;20672;-82
2022/11/07 03:06:00;;;;;;;0.40;0.40;;;9.80;99.90;;;;;;5132007;27;20619;-81
2022/11/07 03:08:27;;;;;;;1.00;1.00;;;9.70;99.90;;;;;;5131383;27;20773;-81
2022/11/07 03:10:54;;;;;;;2.47;0.63;;;9.80;99.90;;;;;;5131825;27;20611;-81
2022/11/07 03:13:22;;;;;;;0.87;0.50;;;9.90;99.90;;;;;;5132249;27;21339;-81
2022/11/07 03:15:49;;;;;;;0.90;0.70;;;9.90;99.90;;;;;;5131797;27;21505;-81
2022/11/07 03:18:17;;;;;;;0.40;0.30;;;10.00;99.90;;;;;;5110474;28;20626;-81
2022/11/07 03:20:45;;;;;;;0.63;0.50;;;10.00;99.90;;;;;;5110006;28;20611;-82
2022/11/07 03:23:12;;;;;;;0.50;0.50;;;10.00;99.90;;;;;;5110614;28;21007;-81
2022/11/07 03:25:39;;;;;;;0.50;0.40;;;10.00;99.90;;;;;;5110401;28;20657;-82
2022/11/07 03:28:06;;;;;;;0.40;0.40;;;9.90;99.90;;;;;;5122505;27;21050;-81
2022/11/07 03:30:33;;;;;;;0.50;0.50;;;9.90;99.90;;;;;;5130704;27;20671;-81
2022/11/07 03:33:00;;;;;;;0.50;0.50;;;9.90;99.90;;;;;;5129104;27;20614;-81
2022/11/07 03:35:29;;;;;;;0.70;0.60;;;10.00;99.90;;;;;;5109927;28;20711;-82
2022/11/07 03:37:56;;;;;;;0.87;0.87;;;9.90;99.90;;;;;;5110200;28;20611;-81
2022/11/07 03:40:23;;;;;;;1.10;0.50;;;10.00;99.90;;;;;;5110476;28;20644;-81
2022/11/07 03:42:49;;;;;;;1.37;1.03;;;10.00;99.90;;;;;;5110118;28;20897;-81
2022/11/07 03:45:17;;;;;;;0.40;0.37;;;10.00;99.90;;;;;;5110251;28;20714;-81
2022/11/07 03:47:46;;;;;;;0.80;0.60;;;9.90;99.90;;;;;;5109589;28;20650;-82
2022/11/07 03:50:15;;;;;;;0.80;0.50;;;10.00;99.90;;;;;;5110475;28;20656;-80
2022/11/07 03:52:45;;;;;;;2.07;0.97;;;10.00;99.90;;;;;;5110112;28;20616;-81
2022/11/07 03:55:14;;;;;;;1.10;0.53;;;10.40;99.90;;;;;;5110097;28;20722;-81
2022/11/07 03:57:42;;;;;;;1.73;0.90;;;9.90;99.90;;;;;;5109589;28;20608;-80
2022/11/07 04:00:10;;;;;;;0.77;0.77;;;9.90;99.90;;;;;;5125490;27;20627;-81
2022/11/07 04:02:37;;;;;;;1.03;1.03;;;10.00;99.90;;;;;;5129657;27;20618;-81
2022/11/07 04:05:04;;;;;;;1.37;1.10;;;10.00;99.90;;;;;;5130375;27;21156;-81
2022/11/07 04:07:31;;;;;;;0.70;0.70;;;10.00;99.90;;;;;;5129772;27;20658;-82
2022/11/07 04:09:59;;;;;;;1.67;0.77;;;10.00;99.90;;;;;;5129754;27;21040;-81
2022/11/07 04:17:55;;;;;;;0.40;0.40;;;9.90;99.90;;;;;;5129723;27;20641;-81
2022/11/07 04:20:22;;;;;;;0.67;0.67;;;9.90;99.90;;;;;;5130354;27;20618;-81
2022/11/07 04:22:49;;;;;;;1.00;0.70;;;9.90;99.90;;;;;;5129742;27;20618;-81
2022/11/07 04:27:41;;;;;;;0.63;0.47;;;9.90;99.90;;;;;;5130408;27;20944;-82
2022/11/07 04:28:03;;;;;;;0.40;0.30;;;9.70;99.90;;;;;;5116991;27;20682;-81
2022/11/07 04:30:30;;;;;;;1.10;0.80;;;9.80;99.90;;;;;;5109222;28;20611;-83
2022/11/07 04:32:59;;;;;;;1.63;1.00;;;9.80;99.90;;;;;;5108804;28;20620;-82
2022/11/07 04:35:28;;;;;;;1.03;0.70;;;9.60;99.90;;;;;;5109144;28;20696;-81
2022/11/07 04:37:55;;;;;;;0.70;0.53;;;9.60;99.90;;;;;;5108247;28;20661;-81
2022/11/07 04:40:23;;;;;;;0.50;0.50;;;9.70;99.90;;;;;;5108798;28;21266;-81
2022/11/07 04:42:50;;;;;;;1.23;1.13;;;9.60;99.90;;;;;;5109040;28;20622;-81
2022/11/07 04:45:18;;;;;;;0.73;0.50;;;9.60;99.90;;;;;;5109562;28;20677;-81
2022/11/07 04:47:45;;;;;;;1.13;1.03;;;9.70;99.90;;;;;;5108576;28;20643;-81
2022/11/07 04:50:14;;;;;;;1.00;0.57;;;9.60;99.90;;;;;;5108664;28;20643;-82
2022/11/07 04:52:41;;;;;;;0.80;0.70;;;9.60;99.90;;;;;;5108415;28;20619;-81
2022/11/07 04:55:09;;;;;;;0.60;0.50;;;9.50;99.90;;;;;;5108621;28;20734;-81
2022/11/07 04:57:38;;;;;;;0.63;0.60;;;9.50;99.90;;;;;;5108649;28;20719;-81
2022/11/07 05:00:06;;;;;;;0.83;0.83;;;9.50;99.90;;;;;;5123664;27;20619;-81
2022/11/07 05:02:32;;;;;;;0.47;0.47;;;9.50;99.90;;;;;;5129162;27;20603;-81
2022/11/07 05:04:59;;;;;;;0.90;0.40;;;9.30;99.90;;;;;;5128592;27;21206;-81
2022/11/07 05:07:26;;;;;;;0.93;0.80;;;9.20;99.90;;;;;;5119172;27;21460;-81
2022/11/07 05:09:53;;;;;;;0.50;0.50;;;9.30;99.90;;;;;;5128869;27;20615;-81
2022/11/07 05:12:20;;;;;;;1.03;0.87;;;9.20;99.90;;;;;;5129107;27;20622;-81
2022/11/07 05:14:48;;;;;;;0.40;0.40;;;9.10;99.90;;;;;;5128597;27;20634;-81
2022/11/07 05:17:16;;;;;;;1.70;0.90;;;9.10;99.90;;;;;;5128569;27;20633;-82
2022/11/07 05:19:43;;;;;;;0.53;0.50;;;9.20;99.90;;;;;;5129267;27;20611;-81
2022/11/07 05:24:54;;;;;;;0.97;0.73;;;9.10;99.90;;;;;;5122712;27;20618;-81
2022/11/07 05:27:21;;;;;;;2.30;0.40;;;9.10;99.90;;;;;;5115712;27;20774;-82
2022/11/07 05:29:50;;;;;;;1.50;0.80;;;9.10;99.90;;;;;;5107666;28;20681;-82
2022/11/07 05:32:17;;;;;;;1.30;1.20;;;9.10;99.90;;;;;;5107806;28;20757;-81
2022/11/07 05:34:43;;;;;;;1.33;0.90;;;9.10;99.90;;;;;;5124677;27;20619;-82
2022/11/07 05:37:12;;;;;;;0.80;0.73;;;9.00;99.90;;;;;;5128930;27;21190;-81
2022/11/07 05:39:39;;;;;;;1.13;0.83;;;9.30;99.90;;;;;;5119034;27;20624;-81
2022/11/07 05:42:06;;;;;;;0.50;0.50;;;9.10;99.90;;;;;;5116678;27;20612;-81
2022/11/07 05:44:33;;;;;;;0.93;0.80;;;9.10;99.90;;;;;;5116766;27;20616;-82
2022/11/07 05:47:04;;;;;;;0.70;0.47;;;9.00;99.90;;;;;;5118890;27;20626;-81
2022/11/07 05:49:31;;;;;;;0.40;0.30;;;;;;;;;;5119475;27;20815;-82
2022/11/07 05:51:58;;;;;;;0.77;0.77;;;9.00;99.90;;;;;;5126726;27;20639;-82
2022/11/07 05:54:26;;;;;;;1.00;0.90;;;9.10;99.90;;;;;;5125620;27;20671;-81
2022/11/07 05:56:56;;;;;;;0.97;0.80;;;9.10;99.90;;;;;;5126826;27;21342;-81
2022/11/07 05:59:23;;;;;;;4.00;0.60;;;9.00;99.90;;;;;;5127712;27;21011;-82
2022/11/07 06:01:50;;;;;;;1.80;1.10;;;9.00;99.90;;;;;;5128590;27;20651;-81
2022/11/07 06:04:18;;;;;;;0.77;0.77;;;9.10;99.90;;;;;;5127578;28;20658;-81
2022/11/07 06:06:45;;;;;;;0.50;0.33;;;9.10;99.90;;;;;;5127711;27;21184;-81
2022/11/07 06:09:11;;;;;;;0.97;0.97;;;9.20;99.90;;;;;;5127764;27;20756;-81
2022/11/07 06:11:38;;;;;;;1.70;1.60;;;9.30;99.90;;;;;;5131527;27;20611;-81
2022/11/07 06:14:05;;;;;;;1.03;0.60;;;;;;;;;;5133315;27;21151;-81
2022/11/07 06:16:32;;;;;;;0.40;0.40;;;9.20;99.90;;;;;;5132320;27;21210;-82
2022/11/07 06:18:59;;;;;;;0.70;0.60;;;9.30;99.90;;;;;;5133220;27;20654;-81
2022/11/07 06:21:27;;;;;;;0.97;0.97;;;9.30;99.90;;;;;;5133022;27;20717;-81
2022/11/07 06:23:54;;;;;;;0.50;0.33;;;9.40;99.90;;;;;;5132479;27;21139;-82
2022/11/07 06:26:21;;;;;;;0.40;0.40;;;9.30;99.90;;;;;;5132108;27;20610;-81
2022/11/07 06:28:47;;;;;;;1.10;0.47;;;9.30;99.90;;;;;;5114323;27;20678;-81
2022/11/07 06:31:14;;;;;;;0.40;0.30;;;9.20;99.90;;;;;;5111947;28;20649;-81
2022/11/07 06:33:41;;;;;;;0.50;0.50;;;9.40;99.90;;;;;;5112214;28;21080;-81
2022/11/07 06:36:10;;;;;;;1.43;0.70;;;9.30;99.90;;;;;;5112032;28;20619;-81
2022/11/07 06:38:40;;;;;;;1.00;0.50;;;9.30;99.90;;;;;;5111157;28;20749;-82
2022/11/07 06:41:08;;;;;;;0.53;0.47;;;9.30;99.90;;;;;;5112229;28;20703;-81
2022/11/07 06:43:35;;;;;;;1.20;1.10;;;9.40;99.90;;;;;;5112099;28;21159;-82
2022/11/07 06:46:04;;;;;;;0.77;0.67;;;9.40;99.90;;;;;;5112393;28;20718;-81
2022/11/07 06:48:31;;;;;;;0.60;0.60;;;9.50;99.90;;;;;;5111230;28;20763;-81
2022/11/07 06:50:59;;;;;;;0.77;0.50;;;9.70;99.90;;;;;;5112163;28;20696;-81
2022/11/07 06:53:26;;;;;;;0.80;0.80;;;9.60;99.90;;;;;;5111707;28;21201;-81
2022/11/07 06:55:55;;;;;;;1.13;1.03;;;9.60;99.90;;;;;;5111933;28;20696;-81
2022/11/07 06:58:22;;;;;;;0.67;0.50;;;9.70;99.90;;;;;;5111490;27;20668;-81
2022/11/07 07:00:49;;;;;;;0.60;0.50;;;9.60;99.90;;;;;;5132421;27;21287;-81
2022/11/07 07:03:16;;;;;;;0.60;0.50;;;9.70;99.90;;;;;;5132145;27;20614;-81
2022/11/07 07:05:43;;;;;;;0.60;0.47;;;9.60;99.90;;;;;;5131737;27;21256;-82
2022/11/07 07:08:12;;;;;;;0.50;0.47;;;9.70;99.90;;;;;;5131224;27;21241;-81
2022/11/07 07:10:42;;;;;;;1.40;1.30;;;9.70;99.90;;;;;;5132130;27;20622;-81
2022/11/07 07:13:12;;;;;;;0.40;0.40;;;9.80;99.90;;;;;;5132176;27;20618;-81
2022/11/07 07:15:39;;;;;;;0.53;0.53;;;9.80;99.90;;;;;;5131648;27;20622;-81
2022/11/07 07:18:06;;;;;;;0.50;0.50;;;9.80;99.90;;;;;;5130922;27;20626;-81
2022/11/07 07:20:33;;;;;;;1.20;0.87;;;9.80;99.90;;;;;;5131618;27;20619;-81
2022/11/07 07:23:00;;;;;;;0.40;0.33;;;9.80;99.90;;;;;;5131944;27;21257;-80
2022/11/07 07:25:27;;;;;;;0.70;0.70;;;9.90;99.90;;;;;;5131944;27;20641;-80
2022/11/07 07:27:53;;;;;;;0.60;0.60;;;9.90;99.90;;;;;;5120485;27;20662;-80
2022/11/07 07:30:22;;;;;;;0.80;0.80;;;9.90;99.90;;;;;;5111479;28;20621;-80
2022/11/07 07:32:49;;;;;;;1.20;0.90;;;10.40;99.90;;;;;;5111022;28;20612;-82
2022/11/07 07:35:16;;;;;;;0.97;0.87;;;10.10;99.90;;;;;;5111792;28;20623;-81
2022/11/07 07:37:43;;;;;;;0.50;0.40;;;10.10;99.90;;;;;;5111363;28;20619;-81
2022/11/07 07:40:10;;;;;;;0.83;0.80;;;10.10;99.90;;;;;;5111478;28;20630;-80
2022/11/07 07:42:41;;;;;;;0.40;0.40;;;10.10;99.90;;;;;;5111448;28;20730;-80
2022/11/07 07:45:10;;;;;;;2.50;0.53;;;10.20;99.90;;;;;;5111893;28;20722;-80
2022/11/07 07:47:39;;;;;;;4.43;0.67;;;10.20;99.90;;;;;;5110809;28;21226;-81
2022/11/07 07:50:08;;;;;;;0.30;0.20;;;10.20;99.90;;;;;;5111383;28;20701;-80
2022/11/07 07:52:35;;;;;;;0.77;0.60;;;10.30;99.90;;;;;;5111085;28;20716;-81
2022/11/07 07:55:02;;;;;;;0.80;0.60;;;10.40;99.90;;;;;;5111130;28;20715;-80
2022/11/07 07:57:29;;;;;;;0.80;0.70;;;;;;;;;;5110717;28;20716;-80
2022/11/07 07:59:56;;;;;;;0.80;0.73;;;10.50;99.90;;;;;;5124217;27;21309;-81
2022/11/07 08:02:23;;;;;;;0.73;0.73;;;10.50;99.90;;;;;;5131373;27;21135;-81
2022/11/07 08:04:51;;;;;;;5.30;0.77;;;10.60;99.90;;;;;;5131744;27;20692;-81
2022/11/07 08:07:18;;;;;;;2.70;0.90;;;10.60;99.90;;;;;;5130800;27;20938;-81
2022/11/07 08:09:45;;;;;;;2.10;0.97;;;10.70;99.90;;;;;;5130163;27;20694;-81
2022/11/07 08:12:12;;;;;;;1.80;0.73;;;10.70;99.90;;;;;;5131360;27;20698;-80
2022/11/07 08:14:38;;;;;;;0.50;0.50;;;10.70;99.90;;;;;;5130588;27;20631;-81
2022/11/07 08:17:05;;;;;;;0.87;0.73;;;10.80;99.90;;;;;;5130154;27;20625;-80
2022/11/07 08:19:32;;;;;;;0.63;0.60;;;10.80;99.90;;;;;;5130262;27;21282;-81
2022/11/07 08:22:00;;;;;;;4.63;0.77;;;10.80;99.90;;;;;;5131027;27;20726;-80
2022/11/07 08:24:27;;;;;;;0.73;0.73;;;10.80;99.90;;;;;;5131439;27;20658;-80
2022/11/07 08:26:54;;;;;;;1.63;1.03;;;10.90;99.90;;;;;;5128061;27;20611;-81
2022/11/07 08:29:21;;;;;;;1.67;0.77;;;10.90;99.90;;;;;;5110644;28;21065;-81
2022/11/07 08:31:49;;;;;;;1.80;1.20;;;11.00;99.90;;;;;;5109852;28;20615;-80
2022/11/07 08:34:16;;;;;;;2.70;1.30;;;11.00;99.90;;;;;;5109643;28;21363;-80
2022/11/07 08:36:43;;;;;;;0.83;0.70;;;11.00;99.90;;;;;;5109561;28;21017;-81
2022/11/07 08:39:11;;;;;;;4.40;1.33;;;11.00;99.90;;;;;;5110358;28;20670;-81
2022/11/07 08:41:38;;;;;;;1.00;0.80;;;11.00;99.90;;;;;;5110172;28;20711;-81
2022/11/07 08:44:07;;;;;;;0.60;0.60;;;11.00;99.90;;;;;;5111132;28;20622;-81
2022/11/07 08:46:33;;;;;;;1.60;1.10;;;11.10;99.90;;;;;;5110509;28;20637;-81
2022/11/07 08:49:00;;;;;;;0.50;0.40;;;11.10;99.90;;;;;;5111332;28;20655;-81
2022/11/07 08:51:27;;;;;;;0.50;0.50;;;11.10;99.90;;;;;;5111086;28;21227;-81
2022/11/07 08:53:54;;;;;;;1.00;0.60;;;11.20;99.90;;;;;;5111285;28;20638;-82
2022/11/07 08:56:22;;;;;;;0.60;0.60;;;11.20;99.90;;;;;;5109441;28;20711;-81
2022/11/07 08:58:49;;;;;;;2.33;1.10;;;11.20;99.90;;;;;;5114412;27;20812;-81
2022/11/07 09:01:16;;;;;;;0.80;0.73;;;11.40;99.90;;;;;;5131188;27;20633;-81
2022/11/07 09:03:43;;;;;;;0.77;0.40;;;11.40;99.90;;;;;;5130043;27;21183;-81
2022/11/07 09:06:11;;;;;;;0.97;0.90;;;11.50;99.90;;;;;;5130000;27;20630;-81
2022/11/07 09:08:39;;;;;;;0.87;0.87;;;11.60;99.90;;;;;;5128229;27;20650;-83
2022/11/07 09:11:06;;;;;;;1.50;0.70;;;11.60;99.90;;;;;;5130024;27;20623;-81
2022/11/07 09:13:35;;;;;;;0.93;0.90;;;11.70;99.90;;;;;;5129812;27;20618;-80
2022/11/07 09:16:04;;;;;;;0.73;0.73;;;11.80;99.90;;;;;;5129754;27;20976;-81
2022/11/07 09:18:31;;;;;;;0.90;0.90;;;11.80;99.90;;;;;;5128952;27;20619;-81
2022/11/07 09:20:59;;;;;;;1.13;0.50;;;11.90;99.90;;;;;;5130048;27;21282;-81
2022/11/07 09:23:27;;;;;;;1.90;1.00;;;11.80;99.90;;;;;;5129665;27;20734;-81
2022/11/07 09:25:54;;;;;;;0.80;0.80;;;11.90;99.90;;;;;;5129922;27;20978;-81
2022/11/07 09:28:21;;;;;;;0.83;0.83;;;11.90;99.90;;;;;;5114837;27;20762;-81
2022/11/07 09:30:53;;;;;;;0.60;0.60;;;11.90;99.90;;;;;;5109738;28;20645;-81
2022/11/07 09:33:20;;;;;;;0.90;0.90;;;12.00;99.90;;;;;;5109172;28;20691;-80
2022/11/07 09:35:47;;;;;;;1.70;1.60;;;12.20;99.90;;;;;;5108744;28;20655;-81
2022/11/07 09:38:15;;;;;;;0.80;0.80;;;12.10;99.90;;;;;;5108680;28;20620;-81
2022/11/07 09:40:48;;;;;;;1.93;0.60;;;12.40;99.90;;;;;;5108754;28;21200;-81
2022/11/07 09:43:48;;;;;;;2.00;0.60;;;12.20;99.90;;;;;;5108741;28;20718;-80
2022/11/07 09:46:27;;;;;;;0.50;0.50;;;12.20;99.90;;;;;;5103996;28;20635;-81
2022/11/07 09:49:01;;;;;;;1.00;0.90;;;12.20;99.90;;;;;;5109068;28;20663;-81
2022/11/07 09:51:34;;;;;;;1.67;0.77;;;12.20;99.90;;;;;;5109212;28;20635;-80
2022/11/07 09:54:06;;;;;;;1.10;0.97;;;12.20;99.90;;;;;;5109173;28;20608;-81
2022/11/07 09:56:33;;;;;;;0.97;0.97;;;12.20;99.90;;;;;;5108690;28;20718;-81
2022/11/07 09:59:06;;;;;;;1.00;0.70;;;13.00;99.90;;;;;;5115289;27;20630;-80
2022/11/07 10:01:34;;;;;;;1.10;1.00;;;12.40;99.90;;;;;;5130262;27;21023;-80
2022/11/07 10:04:01;;;;;;;1.10;0.87;;;12.30;99.90;;;;;;5129931;27;20730;-80
2022/11/07 10:06:32;;;;;;;0.73;0.73;;;12.30;99.90;;;;;;5129397;27;20615;-80
2022/11/07 10:09:10;;;;;;;0.50;0.50;;;12.20;99.90;;;;;;5128966;27;21010;-81
2022/11/07 10:11:40;;;;;;;0.50;0.50;;;12.30;99.90;;;;;;5130633;28;20619;-81
2022/11/07 10:14:19;;;;;;;1.63;0.80;;;12.40;99.90;;;;;;5129720;27;21029;-80
2022/11/07 10:16:59;;;;;;;4.90;3.33;;;12.40;99.90;;;;;;5129358;28;20713;-80
2022/11/07 10:19:52;;;;;;;0.50;0.50;;;12.40;99.90;;;;;;5129712;27;20718;-81
2022/11/07 10:22:33;;;;;;;1.30;1.13;;;12.30;99.90;;;;;;5129981;27;20762;-81
2022/11/07 10:25:18;;;;;;;0.40;0.40;;;12.50;99.90;;;;;;5130090;27;20702;-80
2022/11/07 10:27:50;;;;;;;1.30;1.07;;;12.50;99.90;;;;;;5119954;27;20616;-81
2022/11/07 10:30:19;;;;;;;0.50;0.50;;;12.50;99.90;;;;;;5109612;28;20651;-81
2022/11/07 10:32:57;;;;;;;0.43;0.43;;;12.50;99.90;;;;;;5109063;28;21169;-80
2022/11/07 10:35:28;;;;;;;1.47;0.80;;;12.60;99.90;;;;;;5109079;28;20715;-80
2022/11/07 10:37:57;;;;;;;0.60;0.50;;;12.60;99.90;;;;;;5109026;28;20723;-80
2022/11/07 10:40:27;;;;;;;0.40;0.40;;;12.60;99.90;;;;;;5108510;28;20628;-81
2022/11/07 10:42:55;;;;;;;0.70;0.70;;;12.70;99.90;;;;;;5108729;28;21254;-80
2022/11/07 10:45:23;;;;;;;0.80;0.80;;;12.80;99.90;;;;;;5108783;28;20613;-80
2022/11/07 10:47:59;;;;;;;0.50;0.43;;;12.80;99.90;;;;;;5108569;28;20706;-81
2022/11/07 10:50:26;;;;;;;0.40;0.40;;;13.10;99.90;;;;;;5108385;28;21009;-80
2022/11/07 10:52:55;;;;;;;0.60;0.60;;;12.80;99.90;;;;;;5107882;28;20720;-81
2022/11/07 10:55:23;;;;;;;1.83;0.60;;;12.80;99.90;;;;;;5108280;28;20635;-80
2022/11/07 10:57:54;;;;;;;0.87;0.87;;;12.80;99.90;;;;;;5111271;28;21181;-80
2022/11/07 11:00:23;;;;;;;1.80;1.70;;;12.80;99.90;;;;;;5129571;27;20610;-80
2022/11/07 11:02:51;;;;;;;0.53;0.50;;;12.90;99.90;;;;;;5132305;27;20953;-80
2022/11/07 11:05:25;;;;;;;0.83;0.50;;;12.90;99.90;;;;;;5132060;27;20661;-81
2022/11/07 11:07:54;;;;;;;0.33;0.33;;;13.10;99.90;;;;;;5131808;27;20706;-80
2022/11/07 11:10:23;;;;;;;0.50;0.50;;;13.00;99.90;;;;;;5131589;27;20665;-80
2022/11/07 11:12:50;;;;;;;0.50;0.50;;;13.00;99.90;;;;;;5132348;27;21274;-80
2022/11/07 11:15:19;;;;;;;1.10;0.70;;;13.10;99.90;;;;;;5131722;27;21051;-80
2022/11/07 11:17:47;;;;;;;0.50;0.40;;;13.00;99.90;;;;;;5130516;27;20706;-80
2022/11/07 11:20:33;;;;;;;0.40;0.40;;;13.10;99.90;;;;;;5131940;27;20614;-80
2022/11/07 11:23:01;;;;;;;0.90;0.67;;;13.10;99.90;;;;;;5132030;27;20606;-80
2022/11/07 11:25:28;;;;;;;0.80;0.57;;;13.10;99.90;;;;;;5131650;27;20722;-81
2022/11/07 11:28:00;;;;;;;0.80;0.50;;;13.10;99.90;;;;;;5120316;27;21185;-80
2022/11/07 11:30:29;;;;;;;0.97;0.93;;;13.20;99.90;;;;;;5110714;28;21047;-81
2022/11/07 11:33:02;;;;;;;0.70;0.60;;;13.20;99.90;;;;;;5111143;28;20614;-81
2022/11/07 11:35:37;;;;;;;1.27;0.67;;;13.20;99.90;;;;;;5111145;28;20628;-81
2022/11/07 11:38:12;;;;;;;1.47;0.47;;;13.30;99.90;;;;;;5110983;28;20721;-81
2022/11/07 11:40:42;;;;;;;0.90;0.90;;;13.30;99.90;;;;;;5110762;28;20619;-82
2022/11/07 11:43:19;;;;;;;0.60;0.60;;;13.50;99.90;;;;;;5111541;28;20611;-81
2022/11/07 11:46:00;;;;;;;0.60;0.60;;;13.70;99.20;;;;;;5110440;28;21180;-80
2022/11/07 11:48:32;;;;;;;0.60;0.57;;;13.60;99.00;;;;;;5110100;28;20721;-81
2022/11/07 11:51:06;;;;;;;0.80;0.80;;;13.50;98.60;;;;;;5110755;28;21056;-81
2022/11/07 11:53:32;;;;;;;0.60;0.40;;;13.50;99.70;;;;;;5111102;28;20595;-81
2022/11/07 11:56:21;;;;;;;2.13;0.33;;;13.50;98.90;;;;;;5110651;28;20718;-80
2022/11/07 11:58:54;;;;;;;2.40;1.23;;;13.60;99.50;;;;;;5114615;27;21214;-80
2022/11/07 12:01:30;;;;;;;0.50;0.40;;;13.70;99.50;;;;;;5131323;27;20622;-80
2022/11/07 12:04:19;;;;;;;0.50;0.50;;;13.70;98.40;;;;;;5130920;27;21248;-80
2022/11/07 12:06:47;;;;;;;0.63;0.60;;;13.80;98.20;;;;;;5130204;27;20710;-80
2022/11/07 12:09:32;;;;;;;0.60;0.40;;;13.70;98.50;;;;;;5128849;27;20766;-80
2022/11/07 12:12:18;;;;;;;2.63;0.80;;;13.90;97.90;;;;;;5130458;27;20622;-80
2022/11/07 12:14:57;;;;;;;0.40;0.30;;;13.90;98.80;;;;;;5127360;27;20650;-80
2022/11/07 12:17:30;;;;;;;0.80;0.60;;;14.00;98.80;;;;;;5130078;27;20618;-80
2022/11/07 12:20:03;;;;;;;5.90;0.80;;;14.00;98.30;;;;;;5130627;27;20730;-80
2022/11/07 12:22:44;;;;;;;0.40;0.40;;;14.20;97.80;;;;;;5130684;27;21164;-82
2022/11/07 12:25:20;;;;;;;0.70;0.47;;;14.30;97.30;;;;;;5131027;27;20619;-80
2022/11/07 12:27:54;;;;;;;2.40;0.63;;;14.40;98.30;;;;;;5120314;27;20743;-80
2022/11/07 12:30:26;;;;;;;0.40;0.30;;;14.40;97.60;;;;;;5110554;28;20762;-80
2022/11/07 12:33:08;;;;;;;0.40;0.37;;;14.30;97.50;;;;;;5109371;28;20624;-81
2022/11/07 12:35:43;;;;;;;0.70;0.50;;;14.30;96.60;;;;;;5110567;28;20640;-80
2022/11/07 12:38:36;;;;;;;0.50;0.40;;;14.20;97.20;;;;;;5109103;28;21184;-80
2022/11/07 12:41:09;;;;;;;0.93;0.80;;;14.20;97.80;;;;;;5109811;28;20699;-80
2022/11/07 12:43:48;;;;;;;0.47;0.40;;;14.20;97.30;;;;;;5109519;28;21207;-80
2022/11/07 12:46:24;;;;;;;0.60;0.37;;;14.30;96.80;;;;;;5110043;28;20618;-79
2022/11/07 12:49:14;;;;;;;0.40;0.23;;;14.20;97.10;;;;;;5109222;28;20619;-80
2022/11/07 12:51:52;;;;;;;1.17;0.63;;;14.20;97.20;;;;;;5108956;28;20722;-80
2022/11/07 12:54:37;;;;;;;0.30;0.20;;;14.20;97.30;;;;;;5110016;28;21076;-80
2022/11/07 12:57:12;;;;;;;0.40;0.40;;;14.40;96.20;;;;;;5109155;28;21024;-80
2022/11/07 12:59:40;;;;;;;0.77;0.50;;;14.40;96.70;;;;;;5120739;27;20614;-79
2022/11/07 13:02:17;;;;;;;0.50;0.40;;;14.40;96.50;;;;;;5129208;27;20614;-80
2022/11/07 13:04:53;;;;;;;1.13;0.63;;;14.40;96.50;;;;;;5130027;27;20606;-79
2022/11/07 13:07:27;;;;;;;0.80;0.40;;;14.40;95.20;;;;;;5129670;27;20756;-80
2022/11/07 13:10:02;;;;;;;0.50;0.50;;;14.30;95.70;;;;;;5128529;27;20686;-79
2022/11/07 13:12:36;;;;;;;1.70;0.73;;;14.20;96.10;;;;;;5129973;27;20650;-80
2022/11/07 13:15:04;;;;;;;0.90;0.57;;;14.20;96.50;;;;;;5129692;27;20644;-79